sensor_id;sensor_type;location;lat;lon;timestamp;pressure;altitude;pressure_sealevel;temperature;humidity
13734;BME280;43298;52.560;13.508;2022-08-04T00:01:48;100776.84;;;22.18;100.00
13734;BME280;43298;52.560;13.508;2022-08-04T00:04:44;100785.16;;;22.23;100.00
13734;BME280;43298;52.560;13.508;2022-08-04T00:10:06;100789.44;;;22.15;100.00
13734;BME280;43298;52.560;13.508;2022-08-04T00:12:36;100787.81;;;22.23;100.00
13734;BME280;43298;52.560;13.508;2022-08-04T00:15:09;100790.31;;;22.25;100.00
13734;BME280;43298;52.560;13.508;2022-08-04T00:17:50;100786.00;;;22.24;100.00
13734;BME280;43298;52.560;13.508;2022-08-04T00:20:20;100782.66;;;22.22;100.00
13734;BME280;43298;52.560;13.508;2022-08-04T00:22:47;100782.94;;;22.19;100.00
13734;BME280;43298;52.560;13.508;2022-08-04T00:25:13;100783.91;;;22.18;100.00
13734;BME280;43298;52.560;13.508;2022-08-04T00:27:39;100776.84;;;22.18;100.00
13734;BME280;43298;52.560;13.508;2022-08-04T00:30:06;100787.94;;;22.22;100.00
13734;BME280;43298;52.560;13.508;2022-08-04T00:32:32;100784.63;;;22.20;100.00
13734;BME280;43298;52.560;13.508;2022-08-04T00:34:59;100783.91;;;22.18;100.00
13734;BME280;43298;52.560;13.508;2022-08-04T00:37:26;100782.41;;;22.15;100.00
13734;BME280;43298;52.560;13.508;2022-08-04T00:39:56;100779.75;;;22.15;100.00
13734;BME280;43298;52.560;13.508;2022-08-04T00:48:14;100781.66;;;22.04;100.00
13734;BME280;43298;52.560;13.508;2022-08-04T01:03:08;100768.88;;;21.80;100.00
13734;BME280;43298;52.560;13.508;2022-08-04T01:12:50;100758.13;;;21.63;100.00
13734;BME280;43298;52.560;13.508;2022-08-04T01:15:39;100762.94;;;21.58;100.00
13734;BME280;43298;52.560;13.508;2022-08-04T01:18:08;100758.38;;;21.60;100.00
13734;BME280;43298;52.560;13.508;2022-08-04T01:21:05;100756.72;;;21.59;100.00
13734;BME280;43298;52.560;13.508;2022-08-04T01:27:18;100758.03;;;21.44;100.00
13734;BME280;43298;52.560;13.508;2022-08-04T01:29:55;100759.84;;;21.43;100.00
13734;BME280;43298;52.560;13.508;2022-08-04T01:32:37;100758.44;;;21.39;100.00
13734;BME280;43298;52.560;13.508;2022-08-04T01:35:35;100754.22;;;21.27;100.00
13734;BME280;43298;52.560;13.508;2022-08-04T01:38:08;100759.84;;;21.23;100.00
13734;BME280;43298;52.560;13.508;2022-08-04T01:40:38;100760.00;;;21.21;100.00
13734;BME280;43298;52.560;13.508;2022-08-04T01:43:07;100761.81;;;21.21;100.00
13734;BME280;43298;52.560;13.508;2022-08-04T01:45:36;100757.50;;;21.20;100.00
13734;BME280;43298;52.560;13.508;2022-08-04T01:48:03;100758.59;;;21.17;100.00
13734;BME280;43298;52.560;13.508;2022-08-04T01:50:35;100761.75;;;21.11;100.00
13734;BME280;43298;52.560;13.508;2022-08-04T01:53:02;100764.50;;;21.10;100.00
13734;BME280;43298;52.560;13.508;2022-08-04T01:55:29;100757.84;;;21.06;100.00
13734;BME280;43298;52.560;13.508;2022-08-04T01:57:58;100757.50;;;20.99;100.00
13734;BME280;43298;52.560;13.508;2022-08-04T02:00:27;100761.38;;;20.95;100.00
13734;BME280;43298;52.560;13.508;2022-08-04T02:02:55;100757.44;;;20.90;100.00
13734;BME280;43298;52.560;13.508;2022-08-04T02:05:25;100754.91;;;20.88;100.00
13734;BME280;43298;52.560;13.508;2022-08-04T02:08:50;100758.22;;;20.81;100.00
13734;BME280;43298;52.560;13.508;2022-08-04T02:11:19;100756.22;;;20.73;100.00
13734;BME280;43298;52.560;13.508;2022-08-04T02:14:18;100746.84;;;20.59;100.00
13734;BME280;43298;52.560;13.508;2022-08-04T02:17:30;100739.47;;;20.53;100.00
13734;BME280;43298;52.560;13.508;2022-08-04T02:22:39;100732.94;;;20.48;100.00
13734;BME280;43298;52.560;13.508;2022-08-04T02:25:10;100732.59;;;20.41;100.00
13734;BME280;43298;52.560;13.508;2022-08-04T02:28:12;100737.25;;;20.38;100.00
13734;BME280;43298;52.560;13.508;2022-08-04T02:30:49;100733.34;;;20.32;100.00
13734;BME280;43298;52.560;13.508;2022-08-04T02:33:25;100727.41;;;20.30;100.00
13734;BME280;43298;52.560;13.508;2022-08-04T02:35:58;100730.97;;;20.29;100.00
13734;BME280;43298;52.560;13.508;2022-08-04T02:39:00;100730.28;;;20.27;100.00
13734;BME280;43298;52.560;13.508;2022-08-04T02:41:29;100725.47;;;20.32;100.00
13734;BME280;43298;52.560;13.508;2022-08-04T02:43:58;100699.97;;;20.23;100.00
13734;BME280;43298;52.560;13.508;2022-08-04T02:46:25;100715.97;;;20.20;100.00
13734;BME280;43298;52.560;13.508;2022-08-04T02:48:53;100707.31;;;20.29;100.00
13734;BME280;43298;52.560;13.508;2022-08-04T02:51:56;100713.53;;;20.28;100.00
13734;BME280;43298;52.560;13.508;2022-08-04T02:54:18;100709.63;;;20.23;100.00
13734;BME280;43298;52.560;13.508;2022-08-04T02:56:45;100712.63;;;20.18;100.00
13734;BME280;43298;52.560;13.508;2022-08-04T02:59:13;100715.38;;;20.17;100.00
13734;BME280;43298;52.560;13.508;2022-08-04T03:01:40;100716.47;;;20.14;100.00
13734;BME280;43298;52.560;13.508;2022-08-04T03:04:41;100713.47;;;20.08;100.00
13734;BME280;43298;52.560;13.508;2022-08-04T03:07:35;100702.41;;;19.93;100.00
13734;BME280;43298;52.560;13.508;2022-08-04T03:13:32;100706.50;;;19.86;100.00
13734;BME280;43298;52.560;13.508;2022-08-04T03:16:34;100709.63;;;19.80;100.00
13734;BME280;43298;52.560;13.508;2022-08-04T03:22:23;100715.34;;;19.74;100.00
13734;BME280;43298;52.560;13.508;2022-08-04T03:48:27;100707.28;;;19.55;100.00
13734;BME280;43298;52.560;13.508;2022-08-04T03:54:48;100705.97;;;19.61;100.00
13734;BME280;43298;52.560;13.508;2022-08-04T03:57:36;100704.53;;;19.68;100.00
13734;BME280;43298;52.560;13.508;2022-08-04T04:10:02;100714.56;;;19.94;100.00
13734;BME280;43298;52.560;13.508;2022-08-04T04:12:29;100716.91;;;20.08;100.00
13734;BME280;43298;52.560;13.508;2022-08-04T04:18:29;100726.81;;;20.27;100.00
13734;BME280;43298;52.560;13.508;2022-08-04T04:22:03;100720.69;;;20.37;100.00
13734;BME280;43298;52.560;13.508;2022-08-04T04:24:32;100724.91;;;20.49;100.00
13734;BME280;43298;52.560;13.508;2022-08-04T04:28:10;100728.91;;;20.64;100.00
13734;BME280;43298;52.560;13.508;2022-08-04T04:30:35;100734.31;;;20.84;100.00
13734;BME280;43298;52.560;13.508;2022-08-04T04:36:18;100730.41;;;20.99;100.00
13734;BME280;43298;52.560;13.508;2022-08-04T04:42:14;100733.84;;;21.20;100.00
13734;BME280;43298;52.560;13.508;2022-08-04T04:53:55;100745.22;;;21.60;100.00
13734;BME280;43298;52.560;13.508;2022-08-04T04:57:25;100745.69;;;21.74;100.00
13734;BME280;43298;52.560;13.508;2022-08-04T05:00:08;100746.69;;;21.83;100.00
13734;BME280;43298;52.560;13.508;2022-08-04T05:03:20;100753.25;;;21.98;100.00
13734;BME280;43298;52.560;13.508;2022-08-04T05:09:36;100755.50;;;22.21;100.00
13734;BME280;43298;52.560;13.508;2022-08-04T05:15:00;100756.34;;;22.41;100.00
13734;BME280;43298;52.560;13.508;2022-08-04T05:17:39;100759.56;;;22.54;100.00
13734;BME280;43298;52.560;13.508;2022-08-04T05:22:50;100763.84;;;22.83;100.00
13734;BME280;43298;52.560;13.508;2022-08-04T05:28:32;100771.72;;;23.12;100.00
13734;BME280;43298;52.560;13.508;2022-08-04T05:36:39;100778.72;;;23.50;100.00
13734;BME280;43298;52.560;13.508;2022-08-04T05:39:21;100773.53;;;23.58;100.00
13734;BME280;43298;52.560;13.508;2022-08-04T05:41:48;100781.13;;;23.70;100.00
13734;BME280;43298;52.560;13.508;2022-08-04T05:44:17;100785.69;;;23.78;100.00
13734;BME280;43298;52.560;13.508;2022-08-04T05:46:49;100780.84;;;23.91;100.00
13734;BME280;43298;52.560;13.508;2022-08-04T05:49:17;100793.16;;;24.09;100.00
13734;BME280;43298;52.560;13.508;2022-08-04T05:51:45;100799.13;;;24.11;100.00
13734;BME280;43298;52.560;13.508;2022-08-04T05:54:12;100801.31;;;24.16;100.00
13734;BME280;43298;52.560;13.508;2022-08-04T05:56:39;100801.94;;;24.27;100.00
13734;BME280;43298;52.560;13.508;2022-08-04T05:59:07;100798.25;;;24.38;100.00
13734;BME280;43298;52.560;13.508;2022-08-04T06:01:37;100805.50;;;24.53;100.00
13734;BME280;43298;52.560;13.508;2022-08-04T06:04:04;100809.16;;;24.70;100.00
13734;BME280;43298;52.560;13.508;2022-08-04T06:06:31;100815.91;;;24.82;100.00
13734;BME280;43298;52.560;13.508;2022-08-04T06:08:57;100810.16;;;24.86;100.00
13734;BME280;43298;52.560;13.508;2022-08-04T06:11:26;100812.25;;;25.00;100.00
13734;BME280;43298;52.560;13.508;2022-08-04T06:13:57;100812.00;;;25.11;100.00
13734;BME280;43298;52.560;13.508;2022-08-04T06:16:29;100811.59;;;25.49;100.00
13734;BME280;43298;52.560;13.508;2022-08-04T06:19:02;100819.75;;;25.89;100.00
13734;BME280;43298;52.560;13.508;2022-08-04T06:21:29;100824.22;;;26.31;100.00
13734;BME280;43298;52.560;13.508;2022-08-04T06:23:56;100828.31;;;27.15;100.00
13734;BME280;43298;52.560;13.508;2022-08-04T06:26:24;100837.13;;;27.78;100.00
13734;BME280;43298;52.560;13.508;2022-08-04T06:28:51;100830.56;;;28.35;100.00
13734;BME280;43298;52.560;13.508;2022-08-04T06:31:18;100835.00;;;28.73;99.94
13734;BME280;43298;52.560;13.508;2022-08-04T06:34:10;100839.88;;;29.29;96.44
13734;BME280;43298;52.560;13.508;2022-08-04T06:36:38;100839.50;;;28.73;95.16
13734;BME280;43298;52.560;13.508;2022-08-04T06:39:07;100839.47;;;29.03;94.95
13734;BME280;43298;52.560;13.508;2022-08-04T06:41:33;100827.34;;;29.67;90.89
13734;BME280;43298;52.560;13.508;2022-08-04T06:44:11;100833.13;;;29.85;85.42
13734;BME280;43298;52.560;13.508;2022-08-04T06:46:40;100834.59;;;29.87;84.36
13734;BME280;43298;52.560;13.508;2022-08-04T06:49:08;100840.06;;;30.15;84.61
13734;BME280;43298;52.560;13.508;2022-08-04T06:51:36;100836.19;;;30.32;82.20
13734;BME280;43298;52.560;13.508;2022-08-04T06:54:04;100840.06;;;30.29;81.26
13734;BME280;43298;52.560;13.508;2022-08-04T06:56:30;100836.69;;;30.21;84.30
13734;BME280;43298;52.560;13.508;2022-08-04T06:58:59;100838.44;;;30.28;83.12
13734;BME280;43298;52.560;13.508;2022-08-04T07:01:26;100835.63;;;30.72;81.05
13734;BME280;43298;52.560;13.508;2022-08-04T07:03:52;100833.88;;;31.06;77.79
13734;BME280;43298;52.560;13.508;2022-08-04T07:06:21;100839.75;;;30.95;81.80
13734;BME280;43298;52.560;13.508;2022-08-04T07:08:48;100835.75;;;31.12;78.35
13734;BME280;43298;52.560;13.508;2022-08-04T07:11:16;100844.84;;;31.67;73.87
13734;BME280;43298;52.560;13.508;2022-08-04T07:13:42;100839.31;;;31.75;74.63
13734;BME280;43298;52.560;13.508;2022-08-04T07:16:13;100844.41;;;31.70;74.17
13734;BME280;43298;52.560;13.508;2022-08-04T07:18:39;100837.28;;;32.24;70.35
13734;BME280;43298;52.560;13.508;2022-08-04T07:21:05;100842.91;;;31.88;68.70
13734;BME280;43298;52.560;13.508;2022-08-04T07:23:31;100844.06;;;32.20;71.70
13734;BME280;43298;52.560;13.508;2022-08-04T07:25:57;100835.13;;;32.00;68.30
13734;BME280;43298;52.560;13.508;2022-08-04T07:28:28;100830.09;;;32.31;70.32
13734;BME280;43298;52.560;13.508;2022-08-04T07:30:56;100825.84;;;32.49;67.33
13734;BME280;43298;52.560;13.508;2022-08-04T07:33:23;100832.25;;;32.68;66.63
13734;BME280;43298;52.560;13.508;2022-08-04T07:35:55;100831.28;;;32.88;66.91
13734;BME280;43298;52.560;13.508;2022-08-04T07:38:21;100833.56;;;32.91;64.54
13734;BME280;43298;52.560;13.508;2022-08-04T07:40:47;100828.59;;;32.88;65.29
13734;BME280;43298;52.560;13.508;2022-08-04T07:43:15;100830.47;;;33.14;66.73
13734;BME280;43298;52.560;13.508;2022-08-04T07:45:41;100827.78;;;33.01;64.84
13734;BME280;43298;52.560;13.508;2022-08-04T07:48:09;100827.16;;;32.86;65.52
13734;BME280;43298;52.560;13.508;2022-08-04T07:50:36;100817.06;;;33.14;63.85
13734;BME280;43298;52.560;13.508;2022-08-04T07:53:03;100817.25;;;33.45;64.65
13734;BME280;43298;52.560;13.508;2022-08-04T07:55:30;100829.19;;;32.71;66.50
13734;BME280;43298;52.560;13.508;2022-08-04T07:57:56;100829.22;;;33.16;62.85
13734;BME280;43298;52.560;13.508;2022-08-04T08:00:22;100831.25;;;33.53;62.83
13734;BME280;43298;52.560;13.508;2022-08-04T08:02:49;100821.34;;;33.41;60.60
13734;BME280;43298;52.560;13.508;2022-08-04T08:05:18;100818.88;;;33.59;61.48
13734;BME280;43298;52.560;13.508;2022-08-04T08:07:51;100809.91;;;33.78;60.47
13734;BME280;43298;52.560;13.508;2022-08-04T08:10:17;100807.59;;;33.95;59.73
13734;BME280;43298;52.560;13.508;2022-08-04T08:12:43;100812.16;;;33.94;59.49
13734;BME280;43298;52.560;13.508;2022-08-04T08:15:11;100813.03;;;33.75;60.82
13734;BME280;43298;52.560;13.508;2022-08-04T08:17:40;100808.66;;;33.80;60.24
13734;BME280;43298;52.560;13.508;2022-08-04T08:20:07;100813.81;;;34.39;56.28
13734;BME280;43298;52.560;13.508;2022-08-04T08:22:36;100812.84;;;34.58;55.92
13734;BME280;43298;52.560;13.508;2022-08-04T08:25:05;100814.31;;;34.54;57.22
13734;BME280;43298;52.560;13.508;2022-08-04T08:27:31;100807.91;;;34.86;56.96
13734;BME280;43298;52.560;13.508;2022-08-04T08:29:58;100807.72;;;35.06;58.73
13734;BME280;43298;52.560;13.508;2022-08-04T08:32:25;100806.03;;;35.11;56.31
13734;BME280;43298;52.560;13.508;2022-08-04T08:34:51;100802.44;;;34.68;56.23
13734;BME280;43298;52.560;13.508;2022-08-04T08:37:41;100805.25;;;34.80;55.33
13734;BME280;43298;52.560;13.508;2022-08-04T08:40:34;100799.84;;;34.86;56.14
13734;BME280;43298;52.560;13.508;2022-08-04T08:50:16;100798.50;;;35.44;53.71
13734;BME280;43298;52.560;13.508;2022-08-04T08:56:27;100797.53;;;35.14;54.05
13734;BME280;43298;52.560;13.508;2022-08-04T08:59:38;100796.56;;;35.69;55.06
13734;BME280;43298;52.560;13.508;2022-08-04T09:09:06;100799.16;;;36.42;48.91
13734;BME280;43298;52.560;13.508;2022-08-04T09:12:05;100796.91;;;35.55;51.04
13734;BME280;43298;52.560;13.508;2022-08-04T09:17:22;100795.38;;;36.72;46.91
13734;BME280;43298;52.560;13.508;2022-08-04T09:20:14;100795.03;;;37.15;47.47
13734;BME280;43298;52.560;13.508;2022-08-04T09:25:53;100798.31;;;36.71;48.46
13734;BME280;43298;52.560;13.508;2022-08-04T09:28:25;100794.75;;;36.59;45.51
13734;BME280;43298;52.560;13.508;2022-08-04T09:30:56;100788.94;;;36.85;43.18
13734;BME280;43298;52.560;13.508;2022-08-04T09:36:14;100787.66;;;37.56;42.49
13734;BME280;43298;52.560;13.508;2022-08-04T09:42:08;100782.06;;;37.86;39.81
13734;BME280;43298;52.560;13.508;2022-08-04T09:48:05;100782.47;;;38.34;38.88
13734;BME280;43298;52.560;13.508;2022-08-04T09:50:40;100783.38;;;38.39;41.32
13734;BME280;43298;52.560;13.508;2022-08-04T09:56:38;100778.59;;;38.02;37.63
13734;BME280;43298;52.560;13.508;2022-08-04T09:59:26;100785.41;;;37.65;38.32
13734;BME280;43298;52.560;13.508;2022-08-04T10:01:58;100781.19;;;37.46;40.18
13734;BME280;43298;52.560;13.508;2022-08-04T10:04:30;100776.66;;;37.86;38.55
13734;BME280;43298;52.560;13.508;2022-08-04T10:15:33;100765.56;;;38.55;37.28
13734;BME280;43298;52.560;13.508;2022-08-04T10:18:34;100758.19;;;38.67;37.31
13734;BME280;43298;52.560;13.508;2022-08-04T10:21:13;100765.72;;;38.98;37.90
13734;BME280;43298;52.560;13.508;2022-08-04T10:29:44;100754.31;;;39.34;34.25
13734;BME280;43298;52.560;13.508;2022-08-04T10:35:17;100751.47;;;39.24;34.92
13734;BME280;43298;52.560;13.508;2022-08-04T10:40:40;100746.53;;;38.66;37.41
13734;BME280;43298;52.560;13.508;2022-08-04T10:46:28;100737.94;;;39.03;34.81
13734;BME280;43298;52.560;13.508;2022-08-04T10:48:58;100732.91;;;38.95;34.71
13734;BME280;43298;52.560;13.508;2022-08-04T10:51:53;100736.88;;;38.70;35.04
13734;BME280;43298;52.560;13.508;2022-08-04T10:54:30;100729.75;;;39.19;36.47
13734;BME280;43298;52.560;13.508;2022-08-04T10:57:07;100741.88;;;39.76;35.55
13734;BME280;43298;52.560;13.508;2022-08-04T11:00:02;100729.28;;;39.65;33.54
13734;BME280;43298;52.560;13.508;2022-08-04T11:08:29;100726.97;;;39.14;33.32
13734;BME280;43298;52.560;13.508;2022-08-04T11:14:19;100727.59;;;38.83;33.97
13734;BME280;43298;52.560;13.508;2022-08-04T11:17:04;100707.41;;;38.91;34.25
13734;BME280;43298;52.560;13.508;2022-08-04T11:22:28;100718.28;;;39.77;32.96
13734;BME280;43298;52.560;13.508;2022-08-04T11:25:17;100714.41;;;39.46;31.28
13734;BME280;43298;52.560;13.508;2022-08-04T11:28:48;100711.38;;;40.12;29.65
13734;BME280;43298;52.560;13.508;2022-08-04T11:31:45;100700.44;;;40.02;31.34
13734;BME280;43298;52.560;13.508;2022-08-04T11:34:22;100711.69;;;40.47;31.28
13734;BME280;43298;52.560;13.508;2022-08-04T11:37:10;100708.38;;;40.40;29.76
13734;BME280;43298;52.560;13.508;2022-08-04T11:40:03;100704.34;;;40.16;30.04
13734;BME280;43298;52.560;13.508;2022-08-04T11:42:42;100704.00;;;40.08;29.18
13734;BME280;43298;52.560;13.508;2022-08-04T11:45:18;100707.56;;;40.71;28.57
13734;BME280;43298;52.560;13.508;2022-08-04T11:48:12;100702.84;;;40.62;28.71
13734;BME280;43298;52.560;13.508;2022-08-04T11:50:52;100709.72;;;40.69;27.99
13734;BME280;43298;52.560;13.508;2022-08-04T11:53:23;100702.84;;;40.25;27.38
13734;BME280;43298;52.560;13.508;2022-08-04T11:55:53;100699.94;;;40.37;26.97
13734;BME280;43298;52.560;13.508;2022-08-04T11:58:22;100705.19;;;40.85;26.46
13734;BME280;43298;52.560;13.508;2022-08-04T12:01:45;100693.50;;;40.84;26.24
13734;BME280;43298;52.560;13.508;2022-08-04T12:04:36;100699.31;;;40.61;27.01
13734;BME280;43298;52.560;13.508;2022-08-04T12:07:42;100689.63;;;39.54;29.16
13734;BME280;43298;52.560;13.508;2022-08-04T12:16:57;100696.28;;;39.68;28.58
13734;BME280;43298;52.560;13.508;2022-08-04T12:22:00;100688.47;;;39.77;27.84
13734;BME280;43298;52.560;13.508;2022-08-04T12:24:40;100672.31;;;39.60;27.02
13734;BME280;43298;52.560;13.508;2022-08-04T12:27:16;100664.47;;;39.85;25.87
13734;BME280;43298;52.560;13.508;2022-08-04T12:29:44;100679.44;;;40.19;27.07
13734;BME280;43298;52.560;13.508;2022-08-04T12:32:21;100690.75;;;40.74;26.21
13734;BME280;43298;52.560;13.508;2022-08-04T12:37:57;100683.47;;;40.43;25.69
13734;BME280;43298;52.560;13.508;2022-08-04T12:40:37;100677.56;;;40.93;25.55
13734;BME280;43298;52.560;13.508;2022-08-04T12:43:35;100663.81;;;40.00;26.45
13734;BME280;43298;52.560;13.508;2022-08-04T12:46:08;100670.84;;;40.27;25.44
13734;BME280;43298;52.560;13.508;2022-08-04T12:48:37;100663.75;;;40.21;25.60
13734;BME280;43298;52.560;13.508;2022-08-04T12:51:08;100653.53;;;39.49;26.11
13734;BME280;43298;52.560;13.508;2022-08-04T12:53:42;100660.41;;;40.46;26.52
13734;BME280;43298;52.560;13.508;2022-08-04T12:56:13;100652.72;;;39.75;26.71
13734;BME280;43298;52.560;13.508;2022-08-04T12:58:43;100656.94;;;40.50;25.75
13734;BME280;43298;52.560;13.508;2022-08-04T13:01:15;100663.09;;;40.77;24.98
13734;BME280;43298;52.560;13.508;2022-08-04T13:03:54;100647.28;;;39.75;26.99
13734;BME280;43298;52.560;13.508;2022-08-04T13:06:31;100648.28;;;39.90;26.47
13734;BME280;43298;52.560;13.508;2022-08-04T13:09:08;100650.53;;;39.98;26.29
13734;BME280;43298;52.560;13.508;2022-08-04T13:11:46;100659.28;;;39.79;25.01
13734;BME280;43298;52.560;13.508;2022-08-04T13:14:14;100650.75;;;40.23;25.34
13734;BME280;43298;52.560;13.508;2022-08-04T13:16:42;100645.66;;;39.74;26.18
13734;BME280;43298;52.560;13.508;2022-08-04T13:19:09;100630.69;;;40.61;24.70
13734;BME280;43298;52.560;13.508;2022-08-04T13:21:42;100625.16;;;40.87;24.62
13734;BME280;43298;52.560;13.508;2022-08-04T13:24:14;100632.28;;;40.62;24.75
13734;BME280;43298;52.560;13.508;2022-08-04T13:26:56;100628.66;;;40.41;25.06
13734;BME280;43298;52.560;13.508;2022-08-04T13:29:41;100634.25;;;40.30;25.05
13734;BME280;43298;52.560;13.508;2022-08-04T13:32:08;100630.28;;;40.42;24.99
13734;BME280;43298;52.560;13.508;2022-08-04T13:34:35;100629.44;;;40.78;25.55
13734;BME280;43298;52.560;13.508;2022-08-04T13:37:06;100619.97;;;40.86;24.04
13734;BME280;43298;52.560;13.508;2022-08-04T13:39:33;100622.09;;;40.32;24.44
13734;BME280;43298;52.560;13.508;2022-08-04T13:42:04;100623.13;;;40.26;23.82
13734;BME280;43298;52.560;13.508;2022-08-04T13:44:36;100623.28;;;39.83;24.87
13734;BME280;43298;52.560;13.508;2022-08-04T13:47:13;100607.19;;;40.35;24.46
13734;BME280;43298;52.560;13.508;2022-08-04T13:49:40;100602.91;;;40.95;23.66
13734;BME280;43298;52.560;13.508;2022-08-04T13:52:07;100615.09;;;40.46;24.12
13734;BME280;43298;52.560;13.508;2022-08-04T13:54:39;100605.88;;;41.81;22.96
13734;BME280;43298;52.560;13.508;2022-08-04T13:57:14;100601.50;;;41.75;23.27
13734;BME280;43298;52.560;13.508;2022-08-04T13:59:47;100587.56;;;41.21;23.75
13734;BME280;43298;52.560;13.508;2022-08-04T14:02:37;100599.53;;;41.25;23.16
13734;BME280;43298;52.560;13.508;2022-08-04T14:05:26;100593.63;;;40.76;23.55
13734;BME280;43298;52.560;13.508;2022-08-04T14:08:18;100592.53;;;40.36;23.93
13734;BME280;43298;52.560;13.508;2022-08-04T14:10:58;100586.19;;;40.62;23.43
13734;BME280;43298;52.560;13.508;2022-08-04T14:13:34;100595.53;;;40.03;23.42
13734;BME280;43298;52.560;13.508;2022-08-04T14:16:00;100587.75;;;40.11;23.92
13734;BME280;43298;52.560;13.508;2022-08-04T14:18:29;100582.09;;;41.06;23.59
13734;BME280;43298;52.560;13.508;2022-08-04T14:21:16;100578.66;;;40.69;21.78
13734;BME280;43298;52.560;13.508;2022-08-04T14:23:49;100574.06;;;41.46;22.55
13734;BME280;43298;52.560;13.508;2022-08-04T14:26:25;100580.88;;;41.79;20.66
13734;BME280;43298;52.560;13.508;2022-08-04T14:28:55;100569.13;;;41.33;20.55
13734;BME280;43298;52.560;13.508;2022-08-04T14:31:25;100573.78;;;40.76;20.75
13734;BME280;43298;52.560;13.508;2022-08-04T14:33:52;100573.00;;;40.75;20.52
13734;BME280;43298;52.560;13.508;2022-08-04T14:36:19;100564.38;;;40.93;20.72
13734;BME280;43298;52.560;13.508;2022-08-04T14:41:15;100555.88;;;41.62;19.93
13734;BME280;43298;52.560;13.508;2022-08-04T14:46:10;100561.25;;;41.42;20.46
13734;BME280;43298;52.560;13.508;2022-08-04T14:48:37;100561.34;;;41.97;20.21
13734;BME280;43298;52.560;13.508;2022-08-04T14:51:04;100562.44;;;41.86;20.77
13734;BME280;43298;52.560;13.508;2022-08-04T14:53:36;100563.75;;;42.08;20.45
13734;BME280;43298;52.560;13.508;2022-08-04T14:56:03;100555.88;;;41.92;20.75
13734;BME280;43298;52.560;13.508;2022-08-04T14:58:32;100562.25;;;41.05;21.09
13734;BME280;43298;52.560;13.508;2022-08-04T15:01:01;100557.50;;;40.24;21.55
13734;BME280;43298;52.560;13.508;2022-08-04T15:03:30;100547.22;;;39.63;22.71
13734;BME280;43298;52.560;13.508;2022-08-04T15:05:58;100561.06;;;39.93;22.99
13734;BME280;43298;52.560;13.508;2022-08-04T15:08:25;100550.16;;;39.88;23.03
13734;BME280;43298;52.560;13.508;2022-08-04T15:10:52;100545.94;;;40.39;21.76
13734;BME280;43298;52.560;13.508;2022-08-04T15:13:26;100549.16;;;40.82;22.12
13734;BME280;43298;52.560;13.508;2022-08-04T15:15:52;100545.38;;;40.98;21.87
13734;BME280;43298;52.560;13.508;2022-08-04T15:18:18;100538.94;;;41.19;22.37
13734;BME280;43298;52.560;13.508;2022-08-04T15:20:45;100544.41;;;41.35;21.48
13734;BME280;43298;52.560;13.508;2022-08-04T15:23:11;100536.31;;;41.60;20.46
13734;BME280;43298;52.560;13.508;2022-08-04T15:25:42;100537.38;;;41.99;20.38
13734;BME280;43298;52.560;13.508;2022-08-04T15:28:14;100542.56;;;41.70;21.04
13734;BME280;43298;52.560;13.508;2022-08-04T15:30:41;100525.41;;;41.50;21.06
13734;BME280;43298;52.560;13.508;2022-08-04T15:33:08;100536.03;;;41.51;21.28
13734;BME280;43298;52.560;13.508;2022-08-04T15:35:34;100527.91;;;41.86;21.00
13734;BME280;43298;52.560;13.508;2022-08-04T15:38:26;100521.66;;;41.51;22.04
13734;BME280;43298;52.560;13.508;2022-08-04T15:41:51;100522.63;;;41.04;21.48
13734;BME280;43298;52.560;13.508;2022-08-04T15:44:35;100527.97;;;40.79;21.25
13734;BME280;43298;52.560;13.508;2022-08-04T15:47:13;100519.91;;;41.09;22.01
13734;BME280;43298;52.560;13.508;2022-08-04T15:49:39;100521.31;;;41.37;22.32
13734;BME280;43298;52.560;13.508;2022-08-04T15:52:12;100521.66;;;40.69;22.36
13734;BME280;43298;52.560;13.508;2022-08-04T15:54:41;100517.16;;;40.94;21.80
13734;BME280;43298;52.560;13.508;2022-08-04T15:57:07;100516.97;;;41.21;21.84
13734;BME280;43298;52.560;13.508;2022-08-04T16:08:00;100507.22;;;41.65;21.24
13734;BME280;43298;52.560;13.508;2022-08-04T16:13:04;100500.94;;;40.48;22.98
13734;BME280;43298;52.560;13.508;2022-08-04T16:15:51;100502.97;;;39.79;24.02
13734;BME280;43298;52.560;13.508;2022-08-04T16:20:51;100504.00;;;40.61;23.51
13734;BME280;43298;52.560;13.508;2022-08-04T16:23:46;100502.53;;;40.39;22.46
13734;BME280;43298;52.560;13.508;2022-08-04T16:34:35;100503.06;;;37.41;28.18
13734;BME280;43298;52.560;13.508;2022-08-04T16:37:04;100492.81;;;37.26;28.83
13734;BME280;43298;52.560;13.508;2022-08-04T16:39:30;100501.63;;;36.94;30.47
13734;BME280;43298;52.560;13.508;2022-08-04T16:41:56;100499.03;;;37.27;35.74
13734;BME280;43298;52.560;13.508;2022-08-04T16:44:33;100495.69;;;38.02;28.16
13734;BME280;43298;52.560;13.508;2022-08-04T16:47:03;100496.53;;;38.19;27.65
13734;BME280;43298;52.560;13.508;2022-08-04T16:49:31;100494.09;;;37.85;27.64
13734;BME280;43298;52.560;13.508;2022-08-04T16:52:03;100488.28;;;37.93;28.82
13734;BME280;43298;52.560;13.508;2022-08-04T16:54:31;100487.22;;;37.94;29.12
13734;BME280;43298;52.560;13.508;2022-08-04T16:57:00;100489.69;;;37.95;28.27
13734;BME280;43298;52.560;13.508;2022-08-04T16:59:26;100488.88;;;37.62;29.38
13734;BME280;43298;52.560;13.508;2022-08-04T17:01:53;100488.81;;;37.29;29.29